createdAt,value
2023-03-12T00:00:32.559Z,6.05
2023-03-12T00:03:01.504Z,5.90
2023-03-12T00:05:35.373Z,5.90
2023-03-12T00:10:49.167Z,5.72
2023-03-12T00:13:36.479Z,5.79
2023-03-12T00:16:24.404Z,5.78
2023-03-12T00:19:08.023Z,5.94
2023-03-12T00:21:39.468Z,5.73
2023-03-12T00:24:16.886Z,5.83
2023-03-12T00:26:47.535Z,5.71
2023-03-12T00:29:18.339Z,5.78
2023-03-12T00:32:05.498Z,5.72
2023-03-12T00:34:42.951Z,5.68
2023-03-12T00:37:19.470Z,5.52
2023-03-12T00:39:52.866Z,5.56
2023-03-12T00:45:15.414Z,5.41
2023-03-12T00:47:46.386Z,5.35
2023-03-12T00:50:23.557Z,5.36
2023-03-12T00:53:03.014Z,5.36
2023-03-12T00:55:44.826Z,5.36
2023-03-12T00:58:13.441Z,5.32
2023-03-12T01:00:45.241Z,5.29
2023-03-12T01:03:15.801Z,5.40
2023-03-12T01:05:47.369Z,5.11
2023-03-12T01:08:23.098Z,4.92
2023-03-12T01:10:57.355Z,5.04
2023-03-12T01:13:30.644Z,5.22
2023-03-12T01:16:02.690Z,5.14
2023-03-12T01:18:31.870Z,4.82
2023-03-12T01:21:03.727Z,4.74
2023-03-12T01:23:41.511Z,4.73
2023-03-12T01:26:19.035Z,4.58
2023-03-12T01:28:58.424Z,4.60
2023-03-12T01:31:31.247Z,4.78
2023-03-12T01:34:03.217Z,4.51
2023-03-12T01:36:34.462Z,4.85
2023-03-12T01:39:17.988Z,4.78
2023-03-12T01:41:49.806Z,4.75
2023-03-12T01:44:20.540Z,4.71
2023-03-12T01:46:50.761Z,4.71
2023-03-12T01:49:39.143Z,4.80
2023-03-12T01:52:19.557Z,4.76
2023-03-12T01:55:07.077Z,4.76
2023-03-12T01:57:59.162Z,4.74
2023-03-12T02:00:31.380Z,4.65
2023-03-12T02:03:11.209Z,4.60
2023-03-12T02:06:16.986Z,4.70
2023-03-12T02:08:51.099Z,4.70
2023-03-12T02:11:21.313Z,4.69
2023-03-12T02:13:58.164Z,4.49
2023-03-12T02:16:31.404Z,4.42
2023-03-12T02:19:03.482Z,4.38
2023-03-12T02:21:35.742Z,4.60
2023-03-12T02:24:45.660Z,4.65
2023-03-12T02:27:16.838Z,4.56
2023-03-12T02:30:02.686Z,4.62
2023-03-12T02:32:46.553Z,4.39
2023-03-12T02:35:17.757Z,4.52
2023-03-12T02:38:29.373Z,4.51
2023-03-12T02:41:29.599Z,4.46
2023-03-12T02:44:17.142Z,4.51
2023-03-12T02:46:55.390Z,4.40
2023-03-12T02:49:29.364Z,4.46
2023-03-12T02:52:00.774Z,4.28
2023-03-12T02:54:33.319Z,4.17
2023-03-12T02:57:05.083Z,4.11
2023-03-12T02:59:45.394Z,4.05
2023-03-12T03:02:17.215Z,4.13
2023-03-12T03:04:49.959Z,4.04
2023-03-12T03:07:32.465Z,3.88
2023-03-12T03:10:04.132Z,3.63
2023-03-12T03:12:40.890Z,3.60
2023-03-12T03:17:56.698Z,3.67
2023-03-12T03:20:27.746Z,3.38
2023-03-12T03:23:03.415Z,3.61
2023-03-12T03:25:47.335Z,3.57
2023-03-12T03:28:22.995Z,3.51
2023-03-12T03:30:58.799Z,3.24
2023-03-12T03:33:36.424Z,3.21
2023-03-12T03:36:19.247Z,3.37
2023-03-12T03:39:01.542Z,3.17
2023-03-12T03:44:26.459Z,3.16
2023-03-12T03:47:06.371Z,3.09
2023-03-12T03:49:43.865Z,3.36
2023-03-12T03:52:13.082Z,3.43
2023-03-12T03:54:51.909Z,3.22
2023-03-12T03:57:23.282Z,2.95
2023-03-12T03:59:54.766Z,3.05
2023-03-12T04:02:26.241Z,2.62
2023-03-12T04:05:07.261Z,2.27
2023-03-12T04:07:42.462Z,2.41
2023-03-12T04:10:17.854Z,2.36
2023-03-12T04:12:53.163Z,2.15
2023-03-12T04:15:32.883Z,1.98
2023-03-12T04:18:04.916Z,1.70
2023-03-12T04:20:38.842Z,1.61
2023-03-12T04:23:12.480Z,1.72
2023-03-12T04:25:46.947Z,1.43
2023-03-12T04:28:18.857Z,1.27
2023-03-12T04:31:03.017Z,1.59
2023-03-12T04:33:43.274Z,1.75
2023-03-12T04:36:15.622Z,1.77
2023-03-12T04:38:49.985Z,1.64
2023-03-12T04:41:33.798Z,1.36
2023-03-12T04:44:24.879Z,1.42
2023-03-12T04:46:59.023Z,1.72
2023-03-12T04:49:30.336Z,1.45
2023-03-12T04:52:27.628Z,1.55
2023-03-12T04:55:19.614Z,1.62
2023-03-12T04:57:49.888Z,1.39
2023-03-12T05:00:20.744Z,1.29
2023-03-12T05:02:53.256Z,0.65
2023-03-12T05:05:25.048Z,1.03
2023-03-12T05:07:56.286Z,0.97
2023-03-12T05:10:28.137Z,0.86
2023-03-12T05:12:57.477Z,1.11
2023-03-12T05:15:46.492Z,0.89
2023-03-12T05:18:20.817Z,0.90
2023-03-12T05:21:10.273Z,0.39
2023-03-12T05:23:45.668Z,0.53
2023-03-12T05:29:22.167Z,0.50
2023-03-12T05:32:14.034Z,0.65
2023-03-12T05:34:48.707Z,0.58
2023-03-12T05:37:20.926Z,0.35
2023-03-12T05:40:00.973Z,0.85
2023-03-12T05:42:38.896Z,0.56
2023-03-12T05:45:24.017Z,0.72
2023-03-12T05:47:58.842Z,0.74
2023-03-12T05:50:35.978Z,0.91
2023-03-12T05:53:06.066Z,1.14
2023-03-12T05:55:45.591Z,1.06
2023-03-12T05:58:16.476Z,1.19
2023-03-12T06:00:52.431Z,1.41
2023-03-12T06:03:24.888Z,0.81
2023-03-12T06:06:05.279Z,0.88
2023-03-12T06:08:36.080Z,0.99
2023-03-12T06:11:11.415Z,0.92
2023-03-12T06:13:42.185Z,1.03
2023-03-12T06:16:22.868Z,1.02
2023-03-12T06:19:05.459Z,1.44
2023-03-12T06:21:53.829Z,1.39
2023-03-12T06:24:24.574Z,1.66
2023-03-12T06:27:05.978Z,1.31
2023-03-12T06:29:40.028Z,1.53
2023-03-12T06:32:13.762Z,1.87
2023-03-12T06:34:48.531Z,1.81
2023-03-12T06:37:27.604Z,2.16
2023-03-12T06:39:58.984Z,2.24
2023-03-12T06:42:28.281Z,2.40
2023-03-12T06:44:58.642Z,2.41
2023-03-12T06:47:34.140Z,2.43
2023-03-12T06:50:14.040Z,2.90
2023-03-12T06:52:45.201Z,2.93
2023-03-12T06:55:22.150Z,2.86
2023-03-12T06:58:07.462Z,3.16
2023-03-12T07:00:38.771Z,3.29
2023-03-12T07:03:12.272Z,3.84
2023-03-12T07:05:46.029Z,3.93
2023-03-12T07:08:22.681Z,4.18
2023-03-12T07:11:01.205Z,4.42
2023-03-12T07:13:39.211Z,4.38
2023-03-12T07:16:11.773Z,4.48
2023-03-12T07:18:42.239Z,4.62
2023-03-12T07:21:13.165Z,4.51
2023-03-12T07:23:43.853Z,4.69
2023-03-12T07:26:16.975Z,4.77
2023-03-12T07:28:54.774Z,4.84
2023-03-12T07:31:32.943Z,4.76
2023-03-12T07:34:17.849Z,4.95
2023-03-12T07:36:48.610Z,5.14
2023-03-12T07:39:28.656Z,5.03
2023-03-12T07:42:06.530Z,5.10
2023-03-12T07:44:39.185Z,5.25
2023-03-12T07:47:23.472Z,5.52
2023-03-12T07:50:04.698Z,5.59
2023-03-12T07:52:44.473Z,5.74
2023-03-12T07:55:21.955Z,5.43
2023-03-12T07:57:50.357Z,5.70
2023-03-12T08:00:23.239Z,5.99
2023-03-12T08:03:03.306Z,6.07
2023-03-12T08:05:39.447Z,6.27
2023-03-12T08:08:18.392Z,5.80
2023-03-12T08:10:54.080Z,5.94
2023-03-12T08:13:24.645Z,5.99
2023-03-12T08:16:02.178Z,6.15
2023-03-12T08:18:30.123Z,6.20
2023-03-12T08:21:06.008Z,6.20
2023-03-12T08:23:34.552Z,6.65
2023-03-12T08:26:20.085Z,6.57
2023-03-12T08:28:52.989Z,6.41
2023-03-12T08:31:27.738Z,6.04
2023-03-12T08:34:03.051Z,6.33
2023-03-12T08:36:34.949Z,6.46
2023-03-12T08:39:12.343Z,6.96
2023-03-12T08:41:43.608Z,6.90
2023-03-12T08:44:15.516Z,6.74
2023-03-12T08:46:45.311Z,6.63
2023-03-12T08:49:18.165Z,7.12
2023-03-12T08:51:54.389Z,7.46
2023-03-12T08:54:25.210Z,6.86
2023-03-12T08:56:57.644Z,7.09
2023-03-12T08:59:33.224Z,7.46
2023-03-12T09:02:11.053Z,7.39
2023-03-12T09:04:50.474Z,7.40
2023-03-12T09:07:23.007Z,7.39
2023-03-12T09:09:53.467Z,6.90
2023-03-12T09:12:27.606Z,7.21
2023-03-12T09:15:03.373Z,7.71
2023-03-12T09:17:39.600Z,7.53
2023-03-12T09:20:17.056Z,7.95
2023-03-12T09:22:52.900Z,7.76
2023-03-12T09:25:25.407Z,7.15
2023-03-12T09:27:55.855Z,7.11
2023-03-12T09:30:27.651Z,7.39
2023-03-12T09:33:01.289Z,7.67
2023-03-12T09:35:32.033Z,7.90
2023-03-12T09:38:06.179Z,8.16
2023-03-12T09:40:42.505Z,8.68
2023-03-12T09:43:42.513Z,8.82
2023-03-12T09:46:21.689Z,9.24
2023-03-12T09:48:58.221Z,9.29
2023-03-12T09:54:53.690Z,8.98
2023-03-12T09:57:29.918Z,8.92
2023-03-12T10:00:04.361Z,9.05
2023-03-12T10:03:32.316Z,9.21
2023-03-12T10:09:37.622Z,9.26
2023-03-12T10:12:47.470Z,9.73
2023-03-12T10:15:29.177Z,9.73
2023-03-12T10:18:22.825Z,9.18
2023-03-12T10:21:22.771Z,9.26
2023-03-12T10:24:15.227Z,9.01
2023-03-12T10:27:06.215Z,9.10
2023-03-12T10:29:48.267Z,8.97
2023-03-12T10:32:27.376Z,9.64
2023-03-12T10:35:31.059Z,10.02
2023-03-12T10:38:10.458Z,9.79
2023-03-12T10:40:50.243Z,9.46
2023-03-12T10:43:22.741Z,10.00
2023-03-12T10:46:48.389Z,10.41
2023-03-12T10:49:38.763Z,10.29
2023-03-12T10:52:26.812Z,9.79
2023-03-12T10:54:58.099Z,9.40
2023-03-12T10:57:46.423Z,9.63
2023-03-12T11:00:27.950Z,10.29
2023-03-12T11:03:26.819Z,10.38
2023-03-12T11:06:11.456Z,9.95
2023-03-12T11:08:40.783Z,10.94
2023-03-12T11:11:11.783Z,10.73
2023-03-12T11:13:42.932Z,10.58
2023-03-12T11:16:32.336Z,10.28
2023-03-12T11:19:07.519Z,11.12
2023-03-12T11:21:55.548Z,10.77
2023-03-12T11:24:32.017Z,10.78
2023-03-12T11:27:20.029Z,11.24
2023-03-12T11:29:54.153Z,11.81
2023-03-12T11:32:51.974Z,12.55
2023-03-12T11:35:54.105Z,12.99
2023-03-12T11:38:43.108Z,11.66
2023-03-12T11:42:12.798Z,11.35
2023-03-12T11:45:38.167Z,11.62
2023-03-12T11:48:50.698Z,12.93
2023-03-12T11:51:48.502Z,12.55
2023-03-12T11:54:46.895Z,12.18
2023-03-12T11:58:11.118Z,12.50
2023-03-12T12:00:58.182Z,12.99
2023-03-12T12:06:48.103Z,11.95
2023-03-12T12:09:50.582Z,13.07
2023-03-12T12:12:45.666Z,12.18
2023-03-12T12:15:42.286Z,11.43
2023-03-12T12:18:54.564Z,11.64
2023-03-12T12:21:44.236Z,12.43
2023-03-12T12:24:41.717Z,12.62
2023-03-12T12:27:30.459Z,12.47
2023-03-12T12:30:09.624Z,11.51
2023-03-12T12:33:24.200Z,11.56
2023-03-12T12:35:58.090Z,11.61
2023-03-12T12:39:04.785Z,11.21
2023-03-12T12:41:45.069Z,11.10
2023-03-12T12:44:28.012Z,10.80
2023-03-12T12:47:20.582Z,10.71
2023-03-12T12:50:01.218Z,10.76
2023-03-12T12:52:38.393Z,11.12
2023-03-12T12:56:03.263Z,11.85
2023-03-12T12:58:44.195Z,11.69
2023-03-12T13:01:18.254Z,12.01
2023-03-12T13:03:55.341Z,11.99
2023-03-12T13:06:39.737Z,12.21
2023-03-12T13:09:25.436Z,11.83
2023-03-12T13:12:01.767Z,12.63
2023-03-12T13:14:43.122Z,12.84
2023-03-12T13:17:36.025Z,13.21
2023-03-12T13:20:42.057Z,13.37
2023-03-12T13:23:43.574Z,13.06
2023-03-12T13:26:56.631Z,13.17
2023-03-12T13:29:40.132Z,12.79
2023-03-12T13:33:01.744Z,13.46
2023-03-12T13:35:39.495Z,14.92
2023-03-12T13:38:13.851Z,14.28
2023-03-12T13:41:06.727Z,14.38
2023-03-12T13:43:53.570Z,13.85
2023-03-12T13:46:51.825Z,13.36
2023-03-12T13:49:26.191Z,13.43
2023-03-12T13:52:36.138Z,13.40
2023-03-12T13:55:35.600Z,13.77
2023-03-12T13:58:26.337Z,13.77
2023-03-12T14:01:17.086Z,14.06
2023-03-12T14:03:56.431Z,14.22
2023-03-12T14:06:31.432Z,14.09
2023-03-12T14:09:46.197Z,13.70
2023-03-12T14:12:24.198Z,14.34
2023-03-12T14:15:30.736Z,14.71
2023-03-12T14:18:28.219Z,16.60
2023-03-12T14:21:05.739Z,18.64
2023-03-12T14:23:52.116Z,19.05
2023-03-12T14:26:27.684Z,20.50
2023-03-12T14:29:21.452Z,21.62
2023-03-12T14:31:53.712Z,20.50
2023-03-12T14:34:31.507Z,21.45
2023-03-12T14:37:24.335Z,21.39
2023-03-12T14:40:15.995Z,22.43
2023-03-12T14:42:53.410Z,20.26
2023-03-12T14:45:31.534Z,22.67
2023-03-12T14:48:03.862Z,22.22
2023-03-12T14:53:36.570Z,18.44
2023-03-12T14:56:20.337Z,18.76
2023-03-12T15:01:48.786Z,20.68
2023-03-12T15:04:25.382Z,17.96
2023-03-12T15:07:14.141Z,18.22
2023-03-12T15:09:58.255Z,17.13
2023-03-12T15:12:47.056Z,17.71
2023-03-12T15:18:43.550Z,17.34
2023-03-12T15:21:18.621Z,18.30
2023-03-12T15:23:51.450Z,17.79
2023-03-12T15:26:34.125Z,18.85
2023-03-12T15:29:34.170Z,17.36
2023-03-12T15:32:05.619Z,17.94
2023-03-12T15:34:52.836Z,19.89
2023-03-12T15:37:45.448Z,21.14
2023-03-12T15:40:29.248Z,21.68
2023-03-12T15:43:03.164Z,19.81
2023-03-12T15:45:42.075Z,19.04
2023-03-12T15:48:43.544Z,19.23
2023-03-12T15:51:38.146Z,18.76
2023-03-12T15:54:43.418Z,18.62
2023-03-12T15:57:34.146Z,17.50
2023-03-12T16:00:12.181Z,17.79
2023-03-12T16:03:08.406Z,16.81
2023-03-12T16:05:40.159Z,14.03
2023-03-12T16:08:35.467Z,13.50
2023-03-12T16:11:12.539Z,12.82
2023-03-12T16:13:49.358Z,12.32
2023-03-12T16:16:20.300Z,12.63
2023-03-12T16:21:41.972Z,11.98
2023-03-12T16:24:15.964Z,11.91
2023-03-12T16:27:00.744Z,11.26
2023-03-12T16:29:42.362Z,11.05
2023-03-12T16:32:18.581Z,10.51
2023-03-12T16:34:53.622Z,10.20
2023-03-12T16:37:27.915Z,10.41
2023-03-12T16:40:01.509Z,10.10
2023-03-12T16:42:34.111Z,10.24
2023-03-12T16:45:10.784Z,10.57
2023-03-12T16:47:49.081Z,10.51
2023-03-12T16:50:20.210Z,10.45
2023-03-12T16:52:54.178Z,10.00
2023-03-12T16:55:33.691Z,9.93
2023-03-12T16:58:07.800Z,9.73
2023-03-12T17:00:42.893Z,10.13
2023-03-12T17:03:24.980Z,9.33
2023-03-12T17:05:55.322Z,8.94
2023-03-12T17:08:25.962Z,8.84
2023-03-12T17:11:16.332Z,8.80
2023-03-12T17:13:57.644Z,8.69
2023-03-12T17:16:30.900Z,8.38
2023-03-12T17:19:01.968Z,8.20
2023-03-12T17:21:44.142Z,8.16
2023-03-12T17:24:14.979Z,8.23
2023-03-12T17:26:56.188Z,8.15
2023-03-12T17:29:30.157Z,7.93
2023-03-12T17:32:06.750Z,7.61
2023-03-12T17:34:37.368Z,7.25
2023-03-12T17:37:20.604Z,7.52
2023-03-12T17:39:55.326Z,7.51
2023-03-12T17:42:27.178Z,7.37
2023-03-12T17:45:14.899Z,6.99
2023-03-12T17:47:46.292Z,7.05
2023-03-12T17:50:16.910Z,6.90
2023-03-12T17:52:54.502Z,6.26
2023-03-12T17:55:26.598Z,6.70
2023-03-12T17:57:58.363Z,6.85
2023-03-12T18:00:31.897Z,7.08
2023-03-12T18:03:06.109Z,7.14
2023-03-12T18:05:49.777Z,7.03
2023-03-12T18:08:27.310Z,7.06
2023-03-12T18:10:58.850Z,6.65
2023-03-12T18:13:30.074Z,6.51
2023-03-12T18:16:07.158Z,6.80
2023-03-12T18:18:42.985Z,6.40
2023-03-12T18:21:11.868Z,5.94
2023-03-12T18:23:43.103Z,6.14
2023-03-12T18:26:14.578Z,6.05
2023-03-12T18:28:51.256Z,5.89
2023-03-12T18:31:24.881Z,5.86
2023-03-12T18:33:55.275Z,5.72
2023-03-12T18:36:26.059Z,5.40
2023-03-12T18:38:55.945Z,5.43
2023-03-12T18:41:30.451Z,4.79
2023-03-12T18:44:03.022Z,5.21
2023-03-12T18:46:33.133Z,5.01
2023-03-12T18:49:14.606Z,5.31
2023-03-12T18:51:46.377Z,5.22
2023-03-12T18:54:24.588Z,4.93
2023-03-12T18:57:04.829Z,5.48
2023-03-12T18:59:36.471Z,4.86
2023-03-12T19:02:09.533Z,3.83
2023-03-12T19:04:43.680Z,3.89
2023-03-12T19:07:14.156Z,4.22
2023-03-12T19:09:47.887Z,4.23
2023-03-12T19:12:18.319Z,4.70
2023-03-12T19:14:49.363Z,4.62
2023-03-12T19:17:19.715Z,4.78
2023-03-12T19:19:51.240Z,5.02
2023-03-12T19:22:25.154Z,4.38
2023-03-12T19:24:56.478Z,4.58
2023-03-12T19:27:24.365Z,4.38
2023-03-12T19:29:55.046Z,4.28
2023-03-12T19:32:33.216Z,4.02
2023-03-12T19:35:13.589Z,4.20
2023-03-12T19:37:46.352Z,4.30
2023-03-12T19:40:18.673Z,3.60
2023-03-12T19:42:49.170Z,3.73
2023-03-12T19:45:22.862Z,3.94
2023-03-12T19:47:54.371Z,3.88
2023-03-12T19:50:30.012Z,4.10
2023-03-12T19:53:14.885Z,3.78
2023-03-12T19:55:55.134Z,3.92
2023-03-12T19:58:29.823Z,4.09
2023-03-12T20:01:09.473Z,3.89
2023-03-12T20:03:49.484Z,3.48
2023-03-12T20:06:23.719Z,3.66
2023-03-12T20:08:54.913Z,3.39
2023-03-12T20:11:24.040Z,3.54
2023-03-12T20:13:57.114Z,3.67
2023-03-12T20:16:27.498Z,3.32
2023-03-12T20:18:58.245Z,3.27
2023-03-12T20:21:37.864Z,3.55
2023-03-12T20:24:08.336Z,3.56
2023-03-12T20:26:45.024Z,3.45
2023-03-12T20:29:18.672Z,3.04
2023-03-12T20:31:48.466Z,2.99
2023-03-12T20:34:22.034Z,3.21
2023-03-12T20:36:59.871Z,3.43
2023-03-12T20:39:32.224Z,3.59
2023-03-12T20:42:03.908Z,3.47
2023-03-12T20:44:35.332Z,3.13
2023-03-12T20:47:19.149Z,2.95
2023-03-12T20:49:52.462Z,3.09
2023-03-12T20:52:38.698Z,2.60
2023-03-12T20:55:12.630Z,3.09
2023-03-12T20:57:47.797Z,3.23
2023-03-12T21:00:25.444Z,2.84
2023-03-12T21:03:01.065Z,3.17
2023-03-12T21:05:38.837Z,2.83
2023-03-12T21:08:07.199Z,2.76
2023-03-12T21:10:46.978Z,2.77
2023-03-12T21:13:17.744Z,2.87
2023-03-12T21:15:49.941Z,2.96
2023-03-12T21:18:20.780Z,2.49
2023-03-12T21:20:53.498Z,2.54
2023-03-12T21:23:25.998Z,2.28
2023-03-12T21:26:07.840Z,2.31
2023-03-12T21:28:48.659Z,2.16
2023-03-12T21:31:29.528Z,1.78
2023-03-12T21:34:07.417Z,1.78
2023-03-12T21:36:44.477Z,1.67
2023-03-12T21:39:33.563Z,1.98
2023-03-12T21:42:04.365Z,2.03
2023-03-12T21:44:44.443Z,1.97
2023-03-12T21:47:16.520Z,1.91
2023-03-12T21:49:51.285Z,2.11
2023-03-12T21:52:23.669Z,2.17
2023-03-12T21:54:58.082Z,2.57
2023-03-12T21:57:28.629Z,2.23
2023-03-12T22:00:05.238Z,2.36
2023-03-12T22:02:38.837Z,2.19
2023-03-12T22:05:13.565Z,2.44
2023-03-12T22:07:45.492Z,2.06
2023-03-12T22:10:18.418Z,2.44
2023-03-12T22:12:54.129Z,2.29
2023-03-12T22:15:27.289Z,2.09
2023-03-12T22:17:59.050Z,1.39
2023-03-12T22:23:18.101Z,1.55
2023-03-12T22:25:47.223Z,0.94
2023-03-12T22:28:20.729Z,1.02
2023-03-12T22:30:58.117Z,1.59
2023-03-12T22:33:29.873Z,1.31
2023-03-12T22:36:00.780Z,1.10
2023-03-12T22:38:35.089Z,1.64
2023-03-12T22:41:18.980Z,1.91
2023-03-12T22:43:58.814Z,1.95
2023-03-12T22:46:28.996Z,2.10
2023-03-12T22:49:08.371Z,2.04
2023-03-12T22:51:36.532Z,1.94
2023-03-12T22:54:16.785Z,1.88
2023-03-12T22:56:44.479Z,1.75
2023-03-12T22:59:18.115Z,1.75
2023-03-12T23:01:55.927Z,1.72
2023-03-12T23:04:27.829Z,1.70
2023-03-12T23:07:14.410Z,1.78
2023-03-12T23:09:44.856Z,0.78
2023-03-12T23:12:15.183Z,1.12
2023-03-12T23:14:52.690Z,1.49
2023-03-12T23:17:25.494Z,1.14
2023-03-12T23:19:59.674Z,1.31
2023-03-12T23:22:31.863Z,1.51
2023-03-12T23:25:03.699Z,1.49
2023-03-12T23:27:48.021Z,1.34
2023-03-12T23:30:18.694Z,1.21
2023-03-12T23:32:55.836Z,1.13
2023-03-12T23:35:33.392Z,1.20
2023-03-12T23:38:02.295Z,1.79
2023-03-12T23:40:36.003Z,1.82
2023-03-12T23:43:19.486Z,1.51
2023-03-12T23:45:54.383Z,1.40
2023-03-12T23:48:39.258Z,1.51
2023-03-12T23:51:19.979Z,1.38
2023-03-12T23:53:50.396Z,1.17
2023-03-12T23:56:26.529Z,1.15
2023-03-12T23:59:01.635Z,1.13
